createdAt,value
2023-01-31T00:01:41.499Z,13.75
2023-01-31T00:04:13.460Z,13.72
2023-01-31T00:06:51.453Z,13.68
2023-01-31T00:09:23.576Z,13.66
2023-01-31T00:11:55.585Z,13.62
2023-01-31T00:14:27.562Z,13.59
2023-01-31T00:17:00.435Z,13.56
2023-01-31T00:19:32.334Z,13.53
2023-01-31T00:22:04.251Z,13.50
2023-01-31T00:24:36.204Z,13.47
2023-01-31T00:27:08.743Z,13.44
2023-01-31T00:29:40.726Z,13.41
2023-01-31T00:32:13.566Z,13.39
2023-01-31T00:34:45.519Z,13.36
2023-01-31T00:37:17.545Z,13.33
2023-01-31T00:39:50.313Z,13.31
2023-01-31T00:42:22.599Z,13.28
2023-01-31T00:44:54.561Z,13.26
2023-01-31T00:47:26.466Z,13.23
2023-01-31T00:49:58.346Z,13.21
2023-01-31T00:52:31.128Z,13.18
2023-01-31T00:55:03.106Z,13.16
2023-01-31T00:57:35.456Z,13.14
2023-01-31T01:00:08.782Z,13.12
2023-01-31T01:02:40.669Z,13.10
2023-01-31T01:05:12.706Z,13.08
2023-01-31T01:07:44.709Z,13.05
2023-01-31T01:10:16.932Z,13.03
2023-01-31T01:12:48.949Z,13.01
2023-01-31T01:15:21.182Z,12.99
2023-01-31T01:17:54.228Z,12.97
2023-01-31T01:20:26.202Z,12.95
2023-01-31T01:22:59.484Z,12.93
2023-01-31T01:25:31.762Z,12.91
2023-01-31T01:28:05.400Z,12.89
2023-01-31T01:30:40.266Z,12.88
2023-01-31T01:33:12.227Z,12.85
2023-01-31T01:35:44.355Z,12.83
2023-01-31T01:38:16.361Z,12.82
2023-01-31T01:40:48.255Z,12.80
2023-01-31T01:43:20.212Z,12.78
2023-01-31T01:45:53.047Z,12.76
2023-01-31T01:48:25.570Z,12.75
2023-01-31T01:50:57.726Z,12.73
2023-01-31T01:53:31.054Z,12.71
2023-01-31T01:56:08.596Z,12.69
2023-01-31T01:58:46.976Z,12.68
2023-01-31T02:01:20.290Z,12.66
2023-01-31T02:03:53.279Z,12.64
2023-01-31T02:06:25.846Z,12.63
2023-01-31T02:08:58.198Z,12.61
2023-01-31T02:11:32.592Z,12.60
2023-01-31T02:14:07.773Z,12.58
2023-01-31T02:16:40.059Z,12.56
2023-01-31T02:19:39.263Z,12.55
2023-01-31T02:22:44.387Z,12.54
2023-01-31T02:25:48.576Z,12.52
2023-01-31T02:28:54.168Z,12.50
2023-01-31T02:31:49.798Z,12.49
2023-01-31T02:34:35.604Z,12.48
2023-01-31T02:37:18.674Z,12.47
2023-01-31T02:40:11.467Z,12.45
2023-01-31T02:43:28.032Z,12.44
2023-01-31T02:46:17.216Z,12.43
2023-01-31T02:48:52.991Z,12.41
2023-01-31T02:51:29.937Z,12.41
2023-01-31T02:54:15.887Z,12.40
2023-01-31T02:56:48.701Z,12.39
2023-01-31T02:59:27.076Z,12.37
2023-01-31T03:02:02.700Z,12.36
2023-01-31T03:04:36.994Z,12.34
2023-01-31T03:07:15.594Z,12.34
2023-01-31T03:09:51.866Z,12.32
2023-01-31T03:12:25.603Z,12.31
2023-01-31T03:15:28.012Z,12.29
2023-01-31T03:18:11.249Z,12.28
2023-01-31T03:20:44.878Z,12.27
2023-01-31T03:23:19.130Z,12.26
2023-01-31T03:25:51.715Z,12.25
2023-01-31T03:28:29.631Z,12.24
2023-01-31T03:31:17.586Z,12.23
2023-01-31T03:33:52.784Z,12.23
2023-01-31T03:36:46.613Z,12.24
2023-01-31T03:39:41.912Z,12.28
2023-01-31T03:42:25.873Z,12.35
2023-01-31T03:45:03.947Z,12.44
2023-01-31T03:47:42.075Z,12.54
2023-01-31T03:50:26.011Z,12.66
2023-01-31T03:53:08.559Z,12.81
2023-01-31T03:55:46.635Z,12.98
2023-01-31T03:58:21.104Z,13.15
2023-01-31T04:00:53.428Z,13.33
2023-01-31T04:03:30.902Z,13.52
2023-01-31T04:06:03.331Z,13.71
2023-01-31T04:08:37.064Z,13.92
2023-01-31T04:11:13.965Z,14.14
2023-01-31T04:13:46.051Z,14.37
2023-01-31T04:16:18.193Z,14.59
2023-01-31T04:18:50.687Z,14.80
2023-01-31T04:21:23.368Z,14.99
2023-01-31T04:23:55.293Z,15.16
2023-01-31T04:26:27.247Z,15.30
2023-01-31T04:28:59.108Z,15.42
2023-01-31T04:31:31.231Z,15.54
2023-01-31T04:34:03.193Z,15.65
2023-01-31T04:36:35.259Z,15.73
2023-01-31T04:39:07.207Z,15.80
2023-01-31T04:41:39.640Z,15.86
2023-01-31T04:44:12.249Z,15.90
2023-01-31T04:46:44.217Z,15.93
2023-01-31T04:49:16.206Z,15.96
2023-01-31T04:51:48.079Z,15.98
2023-01-31T04:54:20.063Z,15.99
2023-01-31T04:56:52.177Z,15.99
2023-01-31T04:59:24.137Z,15.99
2023-01-31T05:01:56.080Z,15.99
2023-01-31T05:04:27.942Z,15.98
2023-01-31T05:06:59.891Z,15.98
2023-01-31T05:09:31.840Z,15.97
2023-01-31T05:12:05.291Z,15.97
2023-01-31T05:14:37.302Z,15.97
2023-01-31T05:17:10.033Z,16.00
2023-01-31T05:19:44.044Z,16.05
2023-01-31T05:22:16.699Z,16.11
2023-01-31T05:24:49.703Z,16.19
2023-01-31T05:27:21.479Z,16.28
2023-01-31T05:29:53.480Z,16.38
2023-01-31T05:32:25.550Z,16.48
2023-01-31T05:34:57.461Z,16.60
2023-01-31T05:37:29.415Z,16.71
2023-01-31T05:40:01.984Z,16.82
2023-01-31T05:42:34.138Z,16.93
2023-01-31T05:45:07.171Z,17.03
2023-01-31T05:47:39.151Z,17.14
2023-01-31T05:50:11.795Z,17.23
2023-01-31T05:52:43.800Z,17.32
2023-01-31T05:55:15.736Z,17.41
2023-01-31T05:57:48.676Z,17.49
2023-01-31T06:00:20.724Z,17.56
2023-01-31T06:02:52.731Z,17.62
2023-01-31T06:05:24.803Z,17.68
2023-01-31T06:07:57.162Z,17.71
2023-01-31T06:10:29.077Z,17.74
2023-01-31T06:13:00.999Z,17.75
2023-01-31T06:15:33.182Z,17.76
2023-01-31T06:18:05.216Z,17.77
2023-01-31T06:20:39.011Z,17.77
2023-01-31T06:23:10.894Z,17.76
2023-01-31T06:25:42.829Z,17.74
2023-01-31T06:28:14.756Z,17.71
2023-01-31T06:30:46.883Z,17.69
2023-01-31T06:33:18.988Z,17.65
2023-01-31T06:35:50.963Z,17.62
2023-01-31T06:38:22.891Z,17.58
2023-01-31T06:40:54.784Z,17.54
2023-01-31T06:43:26.769Z,17.49
2023-01-31T06:45:58.665Z,17.45
2023-01-31T06:48:30.667Z,17.41
2023-01-31T06:51:03.073Z,17.35
2023-01-31T06:53:35.008Z,17.31
2023-01-31T06:56:07.799Z,17.26
2023-01-31T06:58:40.367Z,17.22
2023-01-31T07:01:14.608Z,17.17
2023-01-31T07:03:46.592Z,17.13
2023-01-31T07:06:20.597Z,17.08
2023-01-31T07:08:52.592Z,17.04
2023-01-31T07:11:24.551Z,16.99
2023-01-31T07:13:56.748Z,16.95
2023-01-31T07:16:28.877Z,16.90
2023-01-31T07:19:00.877Z,16.86
2023-01-31T07:21:33.697Z,16.82
2023-01-31T07:24:06.067Z,16.78
2023-01-31T07:26:37.966Z,16.74
2023-01-31T07:29:10.116Z,16.69
2023-01-31T07:31:42.063Z,16.66
2023-01-31T07:34:14.150Z,16.62
2023-01-31T07:36:46.029Z,16.58
2023-01-31T07:39:18.236Z,16.54
2023-01-31T07:41:50.528Z,16.50
2023-01-31T07:44:22.474Z,16.47
2023-01-31T07:46:56.692Z,16.43
2023-01-31T07:49:28.590Z,16.39
2023-01-31T07:52:01.756Z,16.36
2023-01-31T07:54:33.794Z,16.33
2023-01-31T07:57:06.084Z,16.29
2023-01-31T07:59:37.978Z,16.26
2023-01-31T08:02:31.916Z,16.22
2023-01-31T08:05:04.451Z,16.18
2023-01-31T08:07:36.471Z,16.14
2023-01-31T08:10:10.135Z,16.11
2023-01-31T08:12:42.448Z,16.08
2023-01-31T08:15:14.417Z,16.06
2023-01-31T08:17:46.388Z,16.05
2023-01-31T08:20:19.665Z,16.06
2023-01-31T08:22:51.581Z,16.08
2023-01-31T08:25:23.941Z,16.11
2023-01-31T08:28:00.682Z,16.18
2023-01-31T08:30:32.851Z,16.26
2023-01-31T08:33:04.910Z,16.36
2023-01-31T08:35:36.989Z,16.47
2023-01-31T08:38:16.425Z,16.58
2023-01-31T08:40:50.622Z,16.72
2023-01-31T08:43:22.608Z,16.87
2023-01-31T08:45:54.586Z,17.03
2023-01-31T08:48:26.541Z,17.19
2023-01-31T08:51:04.026Z,17.34
2023-01-31T08:53:39.145Z,17.51
2023-01-31T08:56:12.876Z,17.67
2023-01-31T08:58:45.163Z,17.83
2023-01-31T09:01:19.295Z,17.98
2023-01-31T09:03:56.516Z,18.12
2023-01-31T09:06:29.126Z,18.26
2023-01-31T09:09:01.132Z,18.40
2023-01-31T09:11:33.765Z,18.55
2023-01-31T09:14:05.632Z,18.69
2023-01-31T09:16:38.939Z,18.81
2023-01-31T09:19:11.234Z,18.91
2023-01-31T09:21:43.114Z,18.97
2023-01-31T09:24:17.835Z,19.01
2023-01-31T09:26:49.832Z,19.06
2023-01-31T09:29:22.007Z,19.11
2023-01-31T09:31:53.949Z,19.16
2023-01-31T09:34:25.968Z,19.19
2023-01-31T09:36:58.063Z,19.19
2023-01-31T09:39:30.007Z,19.17
2023-01-31T09:42:19.271Z,19.14
2023-01-31T09:45:36.906Z,19.10
2023-01-31T09:48:13.607Z,19.07
2023-01-31T09:50:52.212Z,19.04
2023-01-31T09:53:28.339Z,19.04
2023-01-31T09:56:34.308Z,19.04
2023-01-31T09:59:22.916Z,19.04
2023-01-31T10:02:06.142Z,19.04
2023-01-31T10:05:09.018Z,19.00
2023-01-31T10:08:01.813Z,18.95
2023-01-31T10:10:39.724Z,18.89
2023-01-31T10:13:39.515Z,18.84
2023-01-31T10:16:16.186Z,18.78
2023-01-31T10:18:51.952Z,18.73
2023-01-31T10:21:29.380Z,18.71
2023-01-31T10:24:11.886Z,18.77
2023-01-31T10:26:45.859Z,18.83
2023-01-31T10:29:29.672Z,18.88
2023-01-31T10:32:05.460Z,18.98
2023-01-31T10:34:51.398Z,19.05
2023-01-31T10:37:44.298Z,19.22
2023-01-31T10:40:17.831Z,19.32
2023-01-31T10:42:57.656Z,19.35
2023-01-31T10:45:32.091Z,19.36
2023-01-31T10:48:29.523Z,19.54
2023-01-31T10:51:17.207Z,19.73
2023-01-31T10:54:07.783Z,19.79
2023-01-31T10:56:47.825Z,20.00
2023-01-31T10:59:41.160Z,20.48
2023-01-31T11:02:19.173Z,20.61
2023-01-31T11:04:53.665Z,20.48
2023-01-31T11:07:30.706Z,20.28
2023-01-31T11:10:21.104Z,20.09
2023-01-31T11:13:01.989Z,19.91
2023-01-31T11:15:39.728Z,19.76
2023-01-31T11:18:15.950Z,19.59
2023-01-31T11:20:48.307Z,19.38
2023-01-31T11:23:25.894Z,19.18
2023-01-31T11:25:58.803Z,18.98
2023-01-31T11:28:49.825Z,18.80
2023-01-31T11:31:29.509Z,18.60
2023-01-31T11:34:05.959Z,18.41
2023-01-31T11:36:45.977Z,18.25
2023-01-31T11:39:32.628Z,18.11
2023-01-31T11:42:16.355Z,18.01
2023-01-31T11:45:23.509Z,17.95
2023-01-31T11:48:08.520Z,17.92
2023-01-31T11:50:46.083Z,18.09
2023-01-31T11:53:37.802Z,18.38
2023-01-31T11:56:33.806Z,18.52
2023-01-31T11:59:09.994Z,18.53
2023-01-31T12:02:01.140Z,18.46
2023-01-31T12:04:36.428Z,18.37
2023-01-31T12:07:32.337Z,18.29
2023-01-31T12:10:24.674Z,18.22
2023-01-31T12:13:12.546Z,18.15
2023-01-31T12:15:59.149Z,18.12
2023-01-31T12:18:47.092Z,18.15
2023-01-31T12:21:25.220Z,18.22
2023-01-31T12:24:07.408Z,18.33
2023-01-31T12:26:57.275Z,18.49
2023-01-31T12:30:00.592Z,18.68
2023-01-31T12:32:48.572Z,18.88
2023-01-31T12:35:38.766Z,19.14
2023-01-31T12:38:36.859Z,19.35
2023-01-31T12:41:45.999Z,19.54
2023-01-31T12:44:53.200Z,19.72
2023-01-31T12:47:46.136Z,19.90
2023-01-31T12:50:23.960Z,20.01
2023-01-31T12:53:24.920Z,20.11
2023-01-31T12:56:07.470Z,20.19
2023-01-31T12:59:13.665Z,20.24
2023-01-31T13:02:02.345Z,20.23
2023-01-31T13:04:59.960Z,20.23
2023-01-31T13:07:43.255Z,20.18
2023-01-31T13:10:39.369Z,20.13
2023-01-31T13:13:25.216Z,20.09
2023-01-31T13:16:13.926Z,20.06
2023-01-31T13:18:47.836Z,20.02
2023-01-31T13:21:23.808Z,19.96
2023-01-31T13:24:44.383Z,19.96
2023-01-31T13:27:35.071Z,19.94
2023-01-31T13:30:08.600Z,19.86
2023-01-31T13:32:49.722Z,19.77
2023-01-31T13:35:28.471Z,19.68
2023-01-31T13:38:03.029Z,19.58
2023-01-31T13:40:56.356Z,19.48
2023-01-31T13:43:28.516Z,19.38
2023-01-31T13:46:04.597Z,19.30
2023-01-31T13:48:42.558Z,19.23
2023-01-31T13:51:30.769Z,19.16
2023-01-31T13:54:08.521Z,19.09
2023-01-31T13:56:41.084Z,19.01
2023-01-31T13:59:21.484Z,18.92
2023-01-31T14:01:55.327Z,18.81
2023-01-31T14:04:39.133Z,18.71
2023-01-31T14:07:18.108Z,18.56
2023-01-31T14:09:49.989Z,18.44
2023-01-31T14:12:24.709Z,18.33
2023-01-31T14:14:57.311Z,18.23
2023-01-31T14:17:29.331Z,18.13
2023-01-31T14:20:07.926Z,18.03
2023-01-31T14:22:41.695Z,17.92
2023-01-31T14:25:15.329Z,17.82
2023-01-31T14:28:11.107Z,17.72
2023-01-31T14:30:44.093Z,17.61
2023-01-31T14:33:16.150Z,17.52
2023-01-31T14:36:12.716Z,17.44
2023-01-31T14:39:02.521Z,17.34
2023-01-31T14:42:00.998Z,17.25
2023-01-31T14:44:41.350Z,17.15
2023-01-31T14:47:31.595Z,17.07
2023-01-31T14:50:36.934Z,16.98
2023-01-31T14:53:23.862Z,16.89
2023-01-31T14:56:27.941Z,16.81
2023-01-31T14:58:59.984Z,16.73
2023-01-31T15:01:35.577Z,16.66
2023-01-31T15:04:07.495Z,16.59
2023-01-31T15:06:44.065Z,16.53
2023-01-31T15:09:16.328Z,16.46
2023-01-31T15:11:56.243Z,16.40
2023-01-31T15:14:42.811Z,16.35
2023-01-31T15:17:35.663Z,16.28
2023-01-31T15:20:19.864Z,16.21
2023-01-31T15:22:59.923Z,16.16
2023-01-31T15:25:50.664Z,16.10
2023-01-31T15:28:26.485Z,16.04
2023-01-31T15:31:01.457Z,15.99
2023-01-31T15:33:49.683Z,15.93
2023-01-31T15:36:34.394Z,15.87
2023-01-31T15:39:31.069Z,15.82
2023-01-31T15:42:24.576Z,15.76
2023-01-31T15:45:15.457Z,15.70
2023-01-31T15:47:59.042Z,15.66
2023-01-31T15:50:33.972Z,15.60
2023-01-31T15:53:13.840Z,15.56
2023-01-31T15:55:47.257Z,15.52
2023-01-31T15:58:25.006Z,15.49
2023-01-31T16:00:59.426Z,15.47
2023-01-31T16:03:34.633Z,15.47
2023-01-31T16:06:16.964Z,15.49
2023-01-31T16:08:53.213Z,15.52
2023-01-31T16:11:26.478Z,15.57
2023-01-31T16:13:59.735Z,15.64
2023-01-31T16:16:34.026Z,15.73
2023-01-31T16:19:06.288Z,15.83
2023-01-31T16:21:47.443Z,15.93
2023-01-31T16:24:22.154Z,16.06
2023-01-31T16:26:59.148Z,16.19
2023-01-31T16:29:42.794Z,16.33
2023-01-31T16:32:25.168Z,16.48
2023-01-31T16:35:02.412Z,16.64
2023-01-31T16:37:39.746Z,16.79
2023-01-31T16:40:17.577Z,16.94
2023-01-31T16:42:49.493Z,17.08
2023-01-31T16:45:34.586Z,17.20
2023-01-31T16:48:48.691Z,17.32
2023-01-31T16:51:25.812Z,17.44
2023-01-31T16:54:23.582Z,17.53
2023-01-31T16:57:01.741Z,17.60
2023-01-31T16:59:33.759Z,17.65
2023-01-31T17:02:08.648Z,17.69
2023-01-31T17:04:45.872Z,17.73
2023-01-31T17:07:21.927Z,17.74
2023-01-31T17:09:58.582Z,17.75
2023-01-31T17:12:33.723Z,17.76
2023-01-31T17:15:16.953Z,17.75
2023-01-31T17:17:48.760Z,17.74
2023-01-31T17:20:21.739Z,17.73
2023-01-31T17:23:02.011Z,17.71
2023-01-31T17:25:36.716Z,17.68
2023-01-31T17:28:09.080Z,17.65
2023-01-31T17:30:43.056Z,17.61
2023-01-31T17:33:16.140Z,17.56
2023-01-31T17:35:48.154Z,17.52
2023-01-31T17:38:20.203Z,17.48
2023-01-31T17:40:53.357Z,17.43
2023-01-31T17:43:26.256Z,17.39
2023-01-31T17:45:59.231Z,17.34
2023-01-31T17:48:31.163Z,17.30
2023-01-31T17:51:03.214Z,17.24
2023-01-31T17:53:44.072Z,17.19
2023-01-31T17:56:21.401Z,17.13
2023-01-31T17:58:53.351Z,17.07
2023-01-31T18:01:25.607Z,17.02
2023-01-31T18:03:58.424Z,16.97
2023-01-31T18:06:30.280Z,16.91
2023-01-31T18:09:05.005Z,16.85
2023-01-31T18:11:38.509Z,16.81
2023-01-31T18:14:11.877Z,16.75
2023-01-31T18:16:43.929Z,16.70
2023-01-31T18:19:15.928Z,16.64
2023-01-31T18:21:54.928Z,16.59
2023-01-31T18:24:27.488Z,16.52
2023-01-31T18:26:59.521Z,16.47
2023-01-31T18:29:31.452Z,16.42
2023-01-31T18:32:06.460Z,16.38
2023-01-31T18:34:38.611Z,16.32
2023-01-31T18:37:16.930Z,16.27
2023-01-31T18:39:50.092Z,16.22
2023-01-31T18:42:22.216Z,16.17
2023-01-31T18:44:54.140Z,16.12
2023-01-31T18:47:26.119Z,16.07
2023-01-31T18:49:58.872Z,16.02
2023-01-31T18:52:31.330Z,15.98
2023-01-31T18:55:03.331Z,15.93
2023-01-31T18:57:35.258Z,15.88
2023-01-31T19:00:07.834Z,15.84
2023-01-31T19:02:39.996Z,15.80
2023-01-31T19:05:11.883Z,15.75
2023-01-31T19:07:43.916Z,15.71
2023-01-31T19:10:15.883Z,15.66
2023-01-31T19:12:47.986Z,15.63
2023-01-31T19:15:20.177Z,15.58
2023-01-31T19:17:52.947Z,15.53
2023-01-31T19:20:25.005Z,15.50
2023-01-31T19:22:59.420Z,15.45
2023-01-31T19:25:31.317Z,15.41
2023-01-31T19:28:03.355Z,15.37
2023-01-31T19:30:35.604Z,15.33
2023-01-31T19:33:07.930Z,15.29
2023-01-31T19:35:39.851Z,15.25
2023-01-31T19:38:12.826Z,15.21
2023-01-31T19:40:44.686Z,15.17
2023-01-31T19:43:16.617Z,15.14
2023-01-31T19:45:48.690Z,15.09
2023-01-31T19:48:20.658Z,15.05
2023-01-31T19:50:52.675Z,15.01
2023-01-31T19:53:25.282Z,14.97
2023-01-31T19:55:57.268Z,14.93
2023-01-31T19:58:32.432Z,14.89
2023-01-31T20:01:09.806Z,14.86
2023-01-31T20:03:42.091Z,14.83
2023-01-31T20:06:22.820Z,14.81
2023-01-31T20:08:57.228Z,14.80
2023-01-31T20:11:29.880Z,14.80
2023-01-31T20:14:01.901Z,14.83
2023-01-31T20:16:34.538Z,14.86
2023-01-31T20:19:06.980Z,14.92
2023-01-31T20:21:39.877Z,14.99
2023-01-31T20:24:13.767Z,15.07
2023-01-31T20:26:45.699Z,15.18
2023-01-31T20:29:17.676Z,15.29
2023-01-31T20:31:51.338Z,15.42
2023-01-31T20:34:23.448Z,15.55
2023-01-31T20:36:55.444Z,15.69
2023-01-31T20:39:27.416Z,15.85
2023-01-31T20:41:59.311Z,16.01
2023-01-31T20:44:31.207Z,16.18
2023-01-31T20:47:03.317Z,16.33
2023-01-31T20:49:35.287Z,16.49
2023-01-31T20:52:07.181Z,16.64
2023-01-31T20:54:39.124Z,16.77
2023-01-31T20:57:11.217Z,16.89
2023-01-31T20:59:43.112Z,17.00
2023-01-31T21:02:15.086Z,17.10
2023-01-31T21:04:47.010Z,17.18
2023-01-31T21:07:18.899Z,17.25
2023-01-31T21:09:50.806Z,17.30
2023-01-31T21:12:23.335Z,17.35
2023-01-31T21:14:55.276Z,17.39
2023-01-31T21:17:39.526Z,17.41
2023-01-31T21:20:12.579Z,17.43
2023-01-31T21:22:44.498Z,17.44
2023-01-31T21:25:16.443Z,17.44
2023-01-31T21:27:51.024Z,17.44
2023-01-31T21:30:23.187Z,17.43
2023-01-31T21:32:55.280Z,17.41
2023-01-31T21:35:27.280Z,17.39
2023-01-31T21:37:59.208Z,17.36
2023-01-31T21:40:31.162Z,17.34
2023-01-31T21:43:03.146Z,17.31
2023-01-31T21:45:41.105Z,17.28
2023-01-31T21:48:32.243Z,17.24
2023-01-31T21:51:09.453Z,17.19
2023-01-31T21:53:42.282Z,17.15
2023-01-31T21:56:16.911Z,17.10
2023-01-31T21:58:49.343Z,17.05
2023-01-31T22:01:26.056Z,17.02
2023-01-31T22:03:58.293Z,16.96
2023-01-31T22:06:41.172Z,16.90
2023-01-31T22:09:13.583Z,16.86
2023-01-31T22:11:47.774Z,16.81
2023-01-31T22:14:20.211Z,16.76
2023-01-31T22:16:53.179Z,16.72
2023-01-31T22:19:25.160Z,16.66
2023-01-31T22:21:58.540Z,16.60
2023-01-31T22:24:30.466Z,16.55
2023-01-31T22:27:02.359Z,16.51
2023-01-31T22:29:34.361Z,16.45
2023-01-31T22:32:06.392Z,16.40
2023-01-31T22:34:38.386Z,16.35
2023-01-31T22:37:10.311Z,16.30
2023-01-31T22:39:42.235Z,16.25
2023-01-31T22:42:14.260Z,16.20
2023-01-31T22:44:46.228Z,16.15
2023-01-31T22:47:18.104Z,16.10
2023-01-31T22:49:50.021Z,16.05
2023-01-31T22:52:21.960Z,16.01
2023-01-31T22:54:53.879Z,15.96
2023-01-31T22:57:27.720Z,15.92
2023-01-31T22:59:59.668Z,15.87
2023-01-31T23:02:31.991Z,15.82
2023-01-31T23:05:04.062Z,15.77
2023-01-31T23:07:35.937Z,15.73
2023-01-31T23:10:08.219Z,15.68
2023-01-31T23:12:42.769Z,15.63
2023-01-31T23:15:15.068Z,15.59
2023-01-31T23:17:47.305Z,15.55
2023-01-31T23:20:20.580Z,15.51
2023-01-31T23:22:54.264Z,15.46
2023-01-31T23:25:28.998Z,15.42
2023-01-31T23:28:02.713Z,15.37
2023-01-31T23:30:34.735Z,15.33
2023-01-31T23:33:06.656Z,15.30
2023-01-31T23:35:38.564Z,15.26
2023-01-31T23:38:10.440Z,15.22
2023-01-31T23:40:42.370Z,15.18
2023-01-31T23:43:14.234Z,15.13
2023-01-31T23:45:46.360Z,15.09
2023-01-31T23:48:18.641Z,15.05
2023-01-31T23:50:50.553Z,15.01
2023-01-31T23:53:22.504Z,14.97
2023-01-31T23:55:54.435Z,14.94
2023-01-31T23:58:26.309Z,14.90
